Time;durP1;ratioP1;P1;durP2;ratioP2;P2;SDS_P1;SDS_P2;PMS_P1;PMS_P2;Temp;Humidity;BMP_temperature;BMP_pressure;BME280_temperature;BME280_humidity;BME280_pressure;Samples;Min_cycle;Max_cycle;Signal;HPM_P1;HPM_P2
2021/04/02 00:00:34;;;;;;;0.10;0.10;;;5.60;99.90;;;;;;5009830;28;20026;-77
2021/04/02 00:03:00;;;;;;;0.25;0.25;;;5.50;99.90;;;;;;5015244;28;20033;-87
2021/04/02 00:05:26;;;;;;;0.10;0.10;;;5.60;99.90;;;;;;5005373;28;20030;-79
2021/04/02 00:07:52;;;;;;;0.07;0.07;;;5.60;99.90;;;;;;5016677;28;20037;-78
2021/04/02 00:10:21;;;;;;;0.50;0.50;;;5.60;99.90;;;;;;5016258;28;20036;-79
2021/04/02 00:12:48;;;;;;;1.00;0.55;;;5.60;99.90;;;;;;5004011;28;20021;-79
2021/04/02 00:15:16;;;;;;;0.50;0.50;;;5.60;99.90;;;;;;5016970;28;20065;-76
2021/04/02 00:17:43;;;;;;;0.10;0.10;;;5.60;99.90;;;;;;5013322;28;20110;-78
2021/04/02 00:20:10;;;;;;;1.38;0.52;;;5.70;99.90;;;;;;5012944;28;20026;-77
2021/04/02 00:22:36;;;;;;;8.00;0.65;;;5.70;99.90;;;;;;5017358;28;20033;-80
2021/04/02 00:25:02;;;;;;;6.47;0.83;;;5.70;99.90;;;;;;5016638;28;20128;-79
2021/04/02 00:27:28;;;;;;;0.98;0.60;;;5.70;99.90;;;;;;5016781;28;20053;-76
2021/04/02 00:29:54;;;;;;;0.17;0.07;;;5.70;99.90;;;;;;5014889;28;20468;-77
2021/04/02 00:32:19;;;;;;;0.20;0.20;;;5.70;99.90;;;;;;5014988;28;20058;-78
2021/04/02 00:34:45;;;;;;;0.00;0.00;;;5.70;99.90;;;;;;5012193;28;20481;-77
2021/04/02 00:37:11;;;;;;;0.37;0.37;;;5.60;99.90;;;;;;5008281;28;20076;-81
2021/04/02 00:39:37;;;;;;;0.00;0.00;;;5.60;99.90;;;;;;5001933;28;20029;-78
2021/04/02 00:42:03;;;;;;;0.57;0.33;;;5.70;99.90;;;;;;5014373;28;20052;-77
2021/04/02 00:44:29;;;;;;;5.03;0.17;;;5.60;99.90;;;;;;5015782;28;20053;-82
2021/04/02 00:46:55;;;;;;;0.20;0.20;;;5.70;99.90;;;;;;5017008;28;20068;-81
2021/04/02 00:49:20;;;;;;;0.10;0.10;;;5.70;99.90;;;;;;5016243;28;20041;-79
2021/04/02 00:51:46;;;;;;;1.38;0.52;;;5.70;99.90;;;;;;5016928;28;20287;-79
2021/04/02 00:54:12;;;;;;;1.23;0.20;;;5.70;99.90;;;;;;5016069;28;20034;-78
2021/04/02 00:56:38;;;;;;;7.07;0.73;;;5.70;99.90;;;;;;5010483;28;20034;-80
2021/04/02 00:59:05;;;;;;;6.78;0.47;;;5.70;99.90;;;;;;5015095;28;20041;-78
2021/04/02 01:01:30;;;;;;;;;;;5.70;99.90;;;;;;5015418;28;20018;-84
2021/04/02 01:03:56;;;;;;;2.63;0.55;;;5.70;99.90;;;;;;5004589;28;19910;-86
2021/04/02 01:06:27;;;;;;;0.05;0.05;;;5.70;99.90;;;;;;5012541;28;20033;-80
2021/04/02 01:08:53;;;;;;;0.08;0.08;;;5.70;99.90;;;;;;5003476;28;20101;-80
2021/04/02 01:11:22;;;;;;;0.15;0.15;;;5.70;99.90;;;;;;5014003;28;20520;-76
2021/04/02 01:13:54;;;;;;;0.25;0.25;;;5.80;99.90;;;;;;5013857;28;20041;-79
2021/04/02 01:16:21;;;;;;;0.40;0.40;;;5.70;99.90;;;;;;5034810;28;20033;-77
2021/04/02 01:18:57;;;;;;;0.20;0.20;;;5.80;99.90;;;;;;5008512;28;20026;-79
2021/04/02 01:21:28;;;;;;;0.00;0.00;;;5.70;99.90;;;;;;5008891;28;20033;-78
2021/04/02 01:23:59;;;;;;;0.00;0.00;;;5.70;99.90;;;;;;5017655;28;20038;-81
2021/04/02 01:27:03;;;;;;;0.90;0.30;;;5.70;99.90;;;;;;5015240;28;20025;-80
2021/04/02 01:29:44;;;;;;;0.00;0.00;;;5.80;99.90;;;;;;5010575;28;20042;-78
2021/04/02 01:32:16;;;;;;;0.20;0.20;;;5.80;99.90;;;;;;5015759;28;20156;-78
2021/04/02 01:34:48;;;;;;;0.03;0.03;;;5.80;99.90;;;;;;5006862;28;20324;-88
2021/04/02 01:37:30;;;;;;;0.10;0.10;;;5.80;99.90;;;;;;5012040;28;20033;-79
2021/04/02 01:39:59;;;;;;;0.00;0.00;;;5.90;99.90;;;;;;5006794;28;20156;-79
2021/04/02 01:42:27;;;;;;;14.32;1.05;;;6.00;99.90;;;;;;5011563;28;20440;-78
2021/04/02 01:44:54;;;;;;;0.10;0.10;;;6.00;99.90;;;;;;5011319;28;20101;-79
2021/04/02 01:47:22;;;;;;;4.65;1.30;;;6.00;99.90;;;;;;5010351;28;20420;-78
2021/04/02 01:49:51;;;;;;;0.10;0.10;;;5.90;99.90;;;;;;5015360;28;20037;-77
2021/04/02 01:52:18;;;;;;;0.17;0.17;;;5.90;99.90;;;;;;5015175;28;20129;-86
2021/04/02 01:54:44;;;;;;;0.00;0.00;;;5.90;99.90;;;;;;5015315;28;20037;-78
2021/04/02 01:57:11;;;;;;;0.13;0.13;;;5.90;99.90;;;;;;5014976;28;20034;-79
2021/04/02 01:59:37;;;;;;;0.13;0.13;;;5.90;99.90;;;;;;4996703;28;20038;-82
2021/04/02 02:02:04;;;;;;;0.25;0.10;;;5.90;99.90;;;;;;5014329;28;20028;-79
2021/04/02 02:04:31;;;;;;;;;;;5.90;99.90;;;;;;5004674;28;20027;-80
2021/04/02 02:06:59;;;;;;;0.43;0.43;;;5.90;99.90;;;;;;5045402;28;19913;-79
2021/04/02 02:09:34;;;;;;;0.90;0.60;;;5.90;99.90;;;;;;5013480;28;20034;-78
2021/04/02 02:12:04;;;;;;;5.50;1.38;;;5.90;99.90;;;;;;5012941;28;20041;-77
2021/04/02 02:14:33;;;;;;;0.30;0.30;;;5.80;99.90;;;;;;5015175;28;20050;-78
2021/04/02 02:17:02;;;;;;;0.00;0.00;;;5.80;99.90;;;;;;5013954;28;20029;-78
2021/04/02 02:19:33;;;;;;;0.20;0.20;;;5.80;99.90;;;;;;5011756;28;20042;-77
2021/04/02 02:22:06;;;;;;;0.20;0.20;;;5.70;99.90;;;;;;5014278;28;20022;-77
2021/04/02 02:24:34;;;;;;;0.55;0.38;;;5.70;99.90;;;;;;5014731;28;20038;-79
2021/04/02 02:27:01;;;;;;;0.00;0.00;;;5.70;99.90;;;;;;5011223;28;20022;-80
2021/04/02 02:29:27;;;;;;;0.75;0.55;;;5.80;99.90;;;;;;5009338;28;20030;-81
2021/04/02 02:31:53;;;;;;;0.35;0.35;;;5.80;99.90;;;;;;5007061;28;20049;-85
2021/04/02 02:34:19;;;;;;;0.40;0.40;;;5.80;99.90;;;;;;5014748;28;20096;-85
2021/04/02 02:36:45;;;;;;;0.10;0.10;;;5.80;99.90;;;;;;5015568;28;20678;-89
2021/04/02 02:39:14;;;;;;;0.30;0.30;;;5.80;99.90;;;;;;5013534;28;20092;-78
2021/04/02 02:41:40;;;;;;;0.13;0.13;;;5.80;99.90;;;;;;5012802;28;20022;-81
2021/04/02 02:44:06;;;;;;;0.55;0.55;;;5.80;99.90;;;;;;5014294;28;20041;-84
2021/04/02 02:46:32;;;;;;;0.88;0.52;;;5.80;99.90;;;;;;5014801;28;20417;-78
2021/04/02 02:49:15;;;;;;;13.70;1.08;;;5.80;99.90;;;;;;5012042;28;20049;-79
2021/04/02 02:51:42;;;;;;;0.22;0.22;;;5.80;99.90;;;;;;5000033;28;20460;-79
2021/04/02 02:54:12;;;;;;;0.22;0.22;;;5.90;99.90;;;;;;5012983;28;20103;-79
2021/04/02 02:56:40;;;;;;;0.47;0.30;;;5.90;99.90;;;;;;5011368;28;20075;-81
2021/04/02 02:59:11;;;;;;;1.80;0.90;;;5.90;99.90;;;;;;5014709;28;20341;-80
2021/04/02 03:01:38;;;;;;;1.30;0.95;;;5.90;99.90;;;;;;5008626;28;20192;-84
2021/04/02 03:04:07;;;;;;;0.10;0.10;;;5.90;99.90;;;;;;4998101;28;20027;-80
2021/04/02 03:06:37;;;;;;;0.13;0.10;;;6.00;99.90;;;;;;5013836;28;20326;-78
2021/04/02 03:09:06;;;;;;;0.30;0.30;;;5.90;99.90;;;;;;5012770;28;20426;-82
2021/04/02 03:11:33;;;;;;;0.17;0.17;;;5.90;99.90;;;;;;5013582;28;20125;-78
2021/04/02 03:14:00;;;;;;;1.17;0.30;;;5.90;99.90;;;;;;5013396;28;20109;-78
2021/04/02 03:16:27;;;;;;;0.00;0.00;;;5.90;99.90;;;;;;5014060;28;20361;-78
2021/04/02 03:18:56;;;;;;;0.85;0.52;;;5.90;99.90;;;;;;5013373;28;20034;-78
2021/04/02 03:21:22;;;;;;;0.22;0.22;;;5.80;99.90;;;;;;5044933;28;20037;-79
2021/04/02 03:23:50;;;;;;;4.70;0.55;;;5.80;99.90;;;;;;5009740;28;20021;-78
2021/04/02 03:26:17;;;;;;;0.00;0.00;;;5.80;99.90;;;;;;5018643;28;20059;-79
2021/04/02 03:28:43;;;;;;;;;;;5.80;99.90;;;;;;5014012;28;20475;-78
2021/04/02 03:31:10;;;;;;;1.48;0.52;;;5.80;99.90;;;;;;5012448;28;19917;-86
2021/04/02 03:33:44;;;;;;;1.00;0.57;;;5.80;99.90;;;;;;5010484;28;20083;-80
2021/04/02 03:36:13;;;;;;;1.30;1.10;;;5.70;99.90;;;;;;5004732;28;20037;-84
2021/04/02 03:38:42;;;;;;;0.10;0.10;;;5.70;99.90;;;;;;5024969;28;20042;-79
2021/04/02 03:41:12;;;;;;;0.82;0.80;;;5.70;99.90;;;;;;5012143;28;20080;-80
2021/04/02 03:43:39;;;;;;;0.22;0.22;;;5.80;99.90;;;;;;5013596;28;20495;-78
2021/04/02 03:46:06;;;;;;;9.82;2.45;;;5.80;99.90;;;;;;5009643;28;20336;-82
2021/04/02 03:48:36;;;;;;;9.07;1.08;;;5.70;99.90;;;;;;5012863;28;20091;-85
2021/04/02 03:51:05;;;;;;;0.77;0.03;;;5.70;99.90;;;;;;5004504;28;20026;-82
2021/04/02 03:53:42;;;;;;;0.10;0.10;;;5.70;99.90;;;;;;5003944;28;20325;-79
2021/04/02 03:56:13;;;;;;;0.30;0.30;;;5.70;99.90;;;;;;5013795;28;20042;-79
2021/04/02 03:58:42;;;;;;;5.93;1.23;;;5.70;99.90;;;;;;5012861;28;20376;-81
2021/04/02 04:01:11;;;;;;;0.10;0.10;;;5.70;99.90;;;;;;5009001;28;20137;-85
2021/04/02 04:03:42;;;;;;;0.20;0.20;;;5.70;99.90;;;;;;4995189;28;20023;-78
2021/04/02 04:06:13;;;;;;;0.15;0.15;;;5.70;99.90;;;;;;5006455;28;20973;-83
2021/04/02 04:08:40;;;;;;;0.05;0.05;;;5.70;99.90;;;;;;5009162;28;20034;-76
2021/04/02 04:11:08;;;;;;;0.57;0.45;;;5.70;99.90;;;;;;5006584;28;20116;-79
2021/04/02 04:13:36;;;;;;;10.85;1.38;;;5.60;99.90;;;;;;5013522;28;20026;-79
2021/04/02 04:16:04;;;;;;;0.43;0.43;;;5.70;99.90;;;;;;5015986;28;20316;-88
2021/04/02 04:18:33;;;;;;;0.20;0.20;;;5.70;99.90;;;;;;5010954;28;20041;-78
2021/04/02 04:21:03;;;;;;;0.20;0.20;;;5.70;99.90;;;;;;5008385;28;20038;-77
2021/04/02 04:23:29;;;;;;;1.08;0.20;;;5.60;99.90;;;;;;5014552;28;20113;-76
2021/04/02 04:25:58;;;;;;;1.08;0.90;;;5.60;99.90;;;;;;5016140;28;20093;-78
2021/04/02 04:28:25;;;;;;;2.20;0.73;;;5.60;99.90;;;;;;5014793;28;20038;-81
2021/04/02 04:30:55;;;;;;;0.20;0.20;;;5.60;99.90;;;;;;5011806;28;20018;-78
2021/04/02 04:33:23;;;;;;;0.40;0.40;;;5.60;99.90;;;;;;5015258;28;20053;-87
2021/04/02 04:35:50;;;;;;;0.10;0.10;;;5.60;99.90;;;;;;5022291;28;20117;-77
2021/04/02 04:38:16;;;;;;;0.20;0.20;;;5.50;99.90;;;;;;5003940;28;20085;-79
2021/04/02 04:40:44;;;;;;;1.13;0.88;;;5.60;99.90;;;;;;5008400;28;20018;-77
2021/04/02 04:43:14;;;;;;;0.17;0.17;;;5.60;99.90;;;;;;5014522;28;20064;-83
2021/04/02 04:45:40;;;;;;;0.32;0.30;;;5.50;99.90;;;;;;5015538;28;20443;-80
2021/04/02 04:48:08;;;;;;;1.75;1.05;;;5.60;99.90;;;;;;5013201;28;20381;-78
2021/04/02 04:50:34;;;;;;;0.40;0.40;;;5.60;99.90;;;;;;5014797;28;20022;-88
2021/04/02 04:53:20;;;;;;;2.10;1.17;;;5.60;99.90;;;;;;5007860;28;20463;-80
2021/04/02 04:55:47;;;;;;;0.32;0.30;;;5.60;99.90;;;;;;5015168;28;20317;-79
2021/04/02 04:58:16;;;;;;;0.17;0.17;;;5.60;99.90;;;;;;5013345;28;20041;-80
2021/04/02 05:00:44;;;;;;;0.65;0.65;;;5.60;99.90;;;;;;5014097;28;20139;-89
2021/04/02 05:03:16;;;;;;;0.70;0.65;;;5.60;99.90;;;;;;5017653;28;20386;-78
2021/04/02 05:05:44;;;;;;;5.57;0.40;;;5.60;99.90;;;;;;5015660;28;20030;-77
2021/04/02 05:08:19;;;;;;;0.35;0.35;;;5.60;99.90;;;;;;5002192;28;20065;-80
2021/04/02 05:10:47;;;;;;;4.85;0.93;;;5.70;99.90;;;;;;5007826;28;20018;-81
2021/04/02 05:13:14;;;;;;;0.10;0.10;;;5.70;99.90;;;;;;5003244;28;20069;-79
2021/04/02 05:15:41;;;;;;;0.15;0.15;;;5.80;99.90;;;;;;5014800;28;20025;-78
2021/04/02 05:18:08;;;;;;;1.80;1.65;;;5.80;99.90;;;;;;5011365;28;20050;-77
2021/04/02 05:20:41;;;;;;;0.00;0.00;;;5.80;99.90;;;;;;5012643;28;20029;-78
2021/04/02 05:23:07;;;;;;;0.35;0.35;;;5.90;99.90;;;;;;5014644;28;20034;-80
2021/04/02 05:25:33;;;;;;;1.35;0.85;;;5.90;99.90;;;;;;5012879;28;20091;-77
2021/04/02 05:27:59;;;;;;;2.70;0.77;;;5.90;99.90;;;;;;5015147;28;20104;-77
2021/04/02 05:30:26;;;;;;;0.37;0.27;;;6.00;99.90;;;;;;5013296;28;20030;-78
2021/04/02 05:32:52;;;;;;;1.05;0.82;;;6.00;99.90;;;;;;5015957;28;20030;-82
2021/04/02 05:35:18;;;;;;;0.60;0.25;;;6.10;99.90;;;;;;5014999;28;20041;-77
2021/04/02 05:37:44;;;;;;;0.27;0.27;;;6.10;99.90;;;;;;5012904;28;20030;-78
2021/04/02 05:40:10;;;;;;;0.23;0.20;;;6.10;99.90;;;;;;5011568;28;20131;-78
2021/04/02 05:42:40;;;;;;;0.15;0.15;;;6.10;99.90;;;;;;5012786;28;20096;-80
2021/04/02 05:45:07;;;;;;;0.15;0.15;;;6.10;99.90;;;;;;5012978;28;20026;-78
2021/04/02 05:47:33;;;;;;;;;;;6.10;99.90;;;;;;5016440;28;20737;-77
2021/04/02 05:50:01;;;;;;;0.43;0.20;;;6.00;99.90;;;;;;5012987;28;19916;-80
2021/04/02 05:52:29;;;;;;;0.25;0.20;;;6.00;99.90;;;;;;5010192;28;20057;-77
2021/04/02 05:54:57;;;;;;;0.45;0.43;;;6.00;99.90;;;;;;5011156;28;20021;-76
2021/04/02 05:57:25;;;;;;;0.20;0.20;;;6.10;99.90;;;;;;5011064;28;20133;-78
2021/04/02 05:59:55;;;;;;;0.45;0.45;;;6.10;99.90;;;;;;5014981;28;20132;-78
2021/04/02 06:02:22;;;;;;;0.00;0.00;;;6.10;99.90;;;;;;5012416;28;20057;-78
2021/04/02 06:04:48;;;;;;;0.03;0.03;;;6.00;99.90;;;;;;5014058;28;20057;-82
2021/04/02 06:07:14;;;;;;;0.28;0.28;;;6.10;99.90;;;;;;5014620;28;20336;-79
2021/04/02 06:09:39;;;;;;;3.63;0.60;;;6.00;99.90;;;;;;5013554;28;20101;-79
2021/04/02 06:12:05;;;;;;;3.83;0.53;;;6.10;99.90;;;;;;5014016;28;20029;-79
2021/04/02 06:14:31;;;;;;;0.70;0.32;;;6.10;99.90;;;;;;5013373;28;20412;-76
2021/04/02 06:16:57;;;;;;;5.65;0.63;;;6.10;99.90;;;;;;5011224;28;20034;-75
2021/04/02 06:19:23;;;;;;;0.07;0.07;;;6.10;99.90;;;;;;5011900;28;20041;-77
2021/04/02 06:21:56;;;;;;;0.13;0.13;;;6.10;99.90;;;;;;5012492;28;20052;-87
2021/04/02 06:24:59;;;;;;;0.32;0.17;;;6.10;99.90;;;;;;5027013;28;20320;-87
2021/04/02 06:27:28;;;;;;;0.55;0.55;;;6.00;99.90;;;;;;4991830;28;20333;-75
2021/04/02 06:30:04;;;;;;;0.00;0.00;;;6.00;99.90;;;;;;4991773;28;20121;-77
2021/04/02 06:32:35;;;;;;;0.45;0.45;;;5.90;99.90;;;;;;4972446;28;20022;-85
2021/04/02 06:35:07;;;;;;;0.38;0.38;;;5.90;99.90;;;;;;4991685;28;20026;-78
2021/04/02 06:37:34;;;;;;;0.73;0.73;;;5.90;99.90;;;;;;4992020;28;20485;-78
2021/04/02 06:39:59;;;;;;;0.10;0.10;;;6.00;99.90;;;;;;4991467;28;20043;-79
2021/04/02 06:42:29;;;;;;;8.50;2.10;;;5.90;99.90;;;;;;4991759;28;20031;-77
2021/04/02 06:45:06;;;;;;;0.00;0.00;;;5.90;99.90;;;;;;4991017;28;20181;-74
2021/04/02 06:47:40;;;;;;;0.85;0.85;;;5.90;99.90;;;;;;4991698;28;20018;-81
2021/04/02 06:50:19;;;;;;;3.53;0.38;;;5.80;99.90;;;;;;4990638;28;20330;-80
2021/04/02 06:52:53;;;;;;;0.52;0.52;;;5.80;99.90;;;;;;4991821;28;20054;-77
2021/04/02 06:55:21;;;;;;;0.08;0.08;;;5.90;99.90;;;;;;4974952;28;20437;-76
2021/04/02 06:57:49;;;;;;;0.05;0.05;;;5.80;99.90;;;;;;4989043;28;20034;-75
2021/04/02 07:00:26;;;;;;;0.10;0.10;;;5.80;99.90;;;;;;4987754;28;20046;-75
2021/04/02 07:02:52;;;;;;;0.50;0.50;;;5.80;99.90;;;;;;5001968;28;20038;-76
2021/04/02 07:05:20;;;;;;;0.10;0.10;;;5.70;99.90;;;;;;5012245;28;20042;-75
2021/04/02 07:07:53;;;;;;;4.38;1.00;;;5.80;99.90;;;;;;5011001;28;20022;-76
2021/04/02 07:10:21;;;;;;;0.35;0.35;;;5.90;99.90;;;;;;5009938;28;20112;-76
2021/04/02 07:12:50;;;;;;;0.25;0.25;;;6.00;99.90;;;;;;5012124;28;20030;-75
2021/04/02 07:15:18;;;;;;;1.25;0.55;;;5.90;99.90;;;;;;5011055;28;20025;-78
2021/04/02 07:17:46;;;;;;;;;;;6.00;99.90;;;;;;5012846;28;20033;-75
2021/04/02 07:20:14;;;;;;;0.00;0.00;;;5.90;99.90;;;;;;5009295;28;19909;-79
2021/04/02 07:22:41;;;;;;;7.13;0.85;;;5.80;99.90;;;;;;5004983;28;20018;-76
2021/04/02 07:25:08;;;;;;;0.15;0.15;;;5.90;99.90;;;;;;5008486;28;20085;-81
2021/04/02 07:27:35;;;;;;;1.95;1.05;;;5.90;99.90;;;;;;5011099;28;20026;-85
2021/04/02 07:30:08;;;;;;;0.47;0.47;;;5.90;99.90;;;;;;5005962;28;20031;-77
2021/04/02 07:32:38;;;;;;;6.55;0.63;;;6.00;99.90;;;;;;4995843;28;20045;-79
2021/04/02 07:35:05;;;;;;;3.20;0.73;;;6.00;99.90;;;;;;5007767;28;20022;-84
2021/04/02 07:37:37;;;;;;;0.60;0.60;;;6.10;99.90;;;;;;5012199;28;20317;-78
2021/04/02 07:40:07;;;;;;;3.50;1.10;;;6.10;99.90;;;;;;5006422;28;20065;-75
2021/04/02 07:42:33;;;;;;;0.32;0.32;;;6.10;99.90;;;;;;5011569;28;20080;-76
2021/04/02 07:45:00;;;;;;;0.57;0.45;;;6.10;99.90;;;;;;5012314;28;20026;-74
2021/04/02 07:47:25;;;;;;;1.35;1.25;;;6.10;99.90;;;;;;5012510;28;20046;-76
2021/04/02 07:49:53;;;;;;;0.10;0.10;;;6.00;99.90;;;;;;5010768;28;20068;-83
2021/04/02 07:52:35;;;;;;;0.22;0.22;;;6.00;99.90;;;;;;5012845;28;20053;-77
2021/04/02 07:55:15;;;;;;;0.10;0.10;;;6.00;99.90;;;;;;5013459;28;20030;-75
2021/04/02 07:57:56;;;;;;;7.38;2.00;;;6.10;99.90;;;;;;5013693;28;20041;-76
2021/04/02 08:00:27;;;;;;;0.47;0.47;;;6.10;99.90;;;;;;5030705;28;20459;-78
2021/04/02 08:03:16;;;;;;;2.63;1.17;;;6.10;99.90;;;;;;5013607;28;20022;-76
2021/04/02 08:05:54;;;;;;;1.15;1.13;;;6.20;99.90;;;;;;5029848;28;20026;-76
2021/04/02 08:08:20;;;;;;;0.57;0.52;;;6.20;99.90;;;;;;5029209;28;20038;-75
2021/04/02 08:11:32;;;;;;;0.20;0.20;;;6.30;99.90;;;;;;5031380;28;20058;-78
2021/04/02 08:14:11;;;;;;;0.25;0.25;;;6.30;99.90;;;;;;5015860;28;20030;-80
2021/04/02 08:16:45;;;;;;;0.40;0.40;;;6.20;99.90;;;;;;5011678;28;20083;-78
2021/04/02 08:19:24;;;;;;;0.10;0.10;;;6.10;99.90;;;;;;5017112;28;20124;-77
2021/04/02 08:21:52;;;;;;;5.57;0.50;;;6.10;99.90;;;;;;5016281;28;20084;-76
2021/04/02 08:24:24;;;;;;;0.10;0.10;;;6.00;99.90;;;;;;5013477;28;20042;-76
2021/04/02 08:26:50;;;;;;;0.35;0.35;;;6.00;99.90;;;;;;5014351;28;20026;-77
2021/04/02 08:29:18;;;;;;;0.17;0.15;;;6.10;99.90;;;;;;5017314;28;20030;-77
2021/04/02 08:31:47;;;;;;;0.10;0.10;;;6.10;99.90;;;;;;5018356;28;20036;-75
2021/04/02 08:34:18;;;;;;;0.22;0.22;;;6.10;99.90;;;;;;5015170;28;20125;-76
2021/04/02 08:36:46;;;;;;;6.05;1.65;;;6.10;99.90;;;;;;5014700;28;20044;-75
2021/04/02 08:39:14;;;;;;;1.33;0.40;;;6.20;99.90;;;;;;5015042;28;20052;-75
2021/04/02 08:41:40;;;;;;;0.10;0.10;;;6.20;99.90;;;;;;5001734;28;20103;-75
2021/04/02 08:44:06;;;;;;;0.10;0.10;;;6.10;99.90;;;;;;5008959;28;20069;-76
2021/04/02 08:46:44;;;;;;;1.07;0.37;;;6.20;99.90;;;;;;5012497;28;20022;-74
2021/04/02 08:49:15;;;;;;;16.05;0.65;;;6.20;99.90;;;;;;5015855;28;20030;-76
2021/04/02 08:51:47;;;;;;;0.00;0.00;;;6.20;99.90;;;;;;5013581;28;20354;-75
2021/04/02 08:54:19;;;;;;;1.65;1.08;;;6.20;99.90;;;;;;5023638;28;20062;-82
2021/04/02 08:56:46;;;;;;;1.55;1.20;;;6.20;99.90;;;;;;5016689;28;20022;-75
2021/04/02 08:59:12;;;;;;;;;;;6.30;99.90;;;;;;5011404;28;20061;-81
2021/04/02 09:01:41;;;;;;;0.13;0.13;;;6.30;99.90;;;;;;5010842;28;20268;-76
2021/04/02 09:04:09;;;;;;;0.25;0.25;;;6.30;99.90;;;;;;5007162;28;20054;-76
2021/04/02 09:06:35;;;;;;;0.17;0.17;;;6.20;99.90;;;;;;5014849;28;20340;-74
2021/04/02 09:09:03;;;;;;;0.03;0.03;;;6.40;99.90;;;;;;5012689;28;20104;-81
2021/04/02 09:11:29;;;;;;;0.13;0.13;;;6.40;99.90;;;;;;5007215;28;20026;-78
2021/04/02 09:13:55;;;;;;;25.42;0.57;;;6.40;99.90;;;;;;5011056;28;20034;-76
2021/04/02 09:16:21;;;;;;;0.47;0.47;;;6.50;99.90;;;;;;5011126;28;20383;-80
2021/04/02 09:18:57;;;;;;;0.10;0.10;;;6.50;99.90;;;;;;5014706;28;20026;-76
2021/04/02 09:21:24;;;;;;;0.55;0.40;;;6.50;99.90;;;;;;5016563;28;20108;-76
2021/04/02 09:23:52;;;;;;;2.75;0.93;;;6.50;99.90;;;;;;5013525;28;20096;-76
2021/04/02 09:26:18;;;;;;;0.52;0.38;;;6.50;99.90;;;;;;5014971;28;20141;-77
2021/04/02 09:28:45;;;;;;;0.45;0.40;;;6.50;99.90;;;;;;5010696;28;20026;-83
2021/04/02 09:31:21;;;;;;;2.95;0.57;;;6.40;99.90;;;;;;5011154;28;20302;-78
2021/04/02 09:33:50;;;;;;;2.85;0.80;;;6.50;99.90;;;;;;5014151;28;20081;-76
2021/04/02 09:36:17;;;;;;;2.30;1.63;;;6.40;99.90;;;;;;5012508;28;20034;-74
2021/04/02 09:38:44;;;;;;;0.28;0.28;;;6.50;99.90;;;;;;5011890;28;20428;-75
2021/04/02 09:41:11;;;;;;;0.80;0.80;;;6.50;99.90;;;;;;5014114;28;20038;-74
2021/04/02 09:43:48;;;;;;;0.30;0.30;;;6.50;99.90;;;;;;5014873;28;20026;-77
2021/04/02 09:46:29;;;;;;;0.10;0.10;;;6.50;99.90;;;;;;5015862;28;20030;-75
2021/04/02 09:49:22;;;;;;;17.92;1.23;;;6.50;99.90;;;;;;5012751;28;20085;-75
2021/04/02 09:51:53;;;;;;;0.10;0.10;;;6.50;99.90;;;;;;5012779;28;20045;-76
2021/04/02 09:54:20;;;;;;;0.10;0.10;;;6.50;99.90;;;;;;5016222;28;20026;-74
2021/04/02 09:56:46;;;;;;;;;;;6.40;99.90;;;;;;5014361;28;20100;-74
2021/04/02 09:59:13;;;;;;;1.98;0.50;;;6.50;99.90;;;;;;5015036;28;19943;-75
2021/04/02 10:01:41;;;;;;;0.20;0.20;;;6.50;99.90;;;;;;5012650;28;20044;-75
2021/04/02 10:04:08;;;;;;;0.38;0.17;;;6.50;99.90;;;;;;5014615;28;20032;-81
2021/04/02 10:06:35;;;;;;;0.00;0.00;;;6.50;99.90;;;;;;5012889;28;20508;-79
2021/04/02 10:09:01;;;;;;;0.32;0.32;;;6.50;99.90;;;;;;5013496;28;20106;-74
2021/04/02 10:11:27;;;;;;;0.00;0.00;;;6.50;99.90;;;;;;5014508;28;20085;-74
2021/04/02 10:13:54;;;;;;;0.10;0.10;;;6.50;99.90;;;;;;5013839;28;20096;-77
2021/04/02 10:16:20;;;;;;;0.73;0.73;;;6.50;99.90;;;;;;5012308;28;20291;-74
2021/04/02 10:18:48;;;;;;;0.57;0.57;;;6.50;99.90;;;;;;5011361;28;20076;-76
2021/04/02 10:21:14;;;;;;;6.57;1.25;;;6.50;99.90;;;;;;5012815;28;20025;-74
2021/04/02 10:23:40;;;;;;;0.70;0.70;;;6.50;99.90;;;;;;5012259;28;20429;-74
2021/04/02 10:26:06;;;;;;;0.00;0.00;;;6.40;99.90;;;;;;5012869;28;20037;-73
2021/04/02 10:28:32;;;;;;;0.97;0.50;;;6.50;99.90;;;;;;5013015;28;20331;-78
2021/04/02 10:30:58;;;;;;;0.20;0.20;;;6.60;99.90;;;;;;5013946;28;20096;-74
2021/04/02 10:33:24;;;;;;;7.70;0.40;;;6.60;99.90;;;;;;5013007;28;20440;-74
2021/04/02 10:35:49;;;;;;;0.70;0.70;;;6.60;99.90;;;;;;5012860;28;20033;-74
2021/04/02 10:38:15;;;;;;;0.30;0.30;;;6.70;99.90;;;;;;5013593;28;20038;-74
2021/04/02 10:40:41;;;;;;;0.10;0.10;;;6.80;99.90;;;;;;5011784;28;20035;-75
2021/04/02 10:43:08;;;;;;;52.30;1.00;;;6.80;99.90;;;;;;5011165;28;20417;-74
2021/04/02 10:45:34;;;;;;;0.10;0.10;;;6.80;99.90;;;;;;5011281;28;20100;-76
2021/04/02 10:48:01;;;;;;;3.83;0.68;;;6.80;99.90;;;;;;5011014;28;20034;-76
2021/04/02 10:50:28;;;;;;;0.77;0.77;;;7.00;99.90;;;;;;5026681;28;20034;-78
2021/04/02 10:52:54;;;;;;;1.15;0.65;;;6.90;99.90;;;;;;5009202;28;20073;-76
2021/04/02 10:55:21;;;;;;;3.20;0.90;;;6.90;99.90;;;;;;5005381;28;20421;-77
2021/04/02 10:57:47;;;;;;;0.32;0.10;;;6.90;99.90;;;;;;5004104;28;20103;-87
2021/04/02 11:00:15;;;;;;;0.27;0.27;;;6.90;99.90;;;;;;5000952;28;20045;-80
2021/04/02 11:02:41;;;;;;;0.65;0.65;;;6.90;99.90;;;;;;5009702;28;20437;-79
2021/04/02 11:05:08;;;;;;;0.80;0.65;;;6.90;99.90;;;;;;5011218;28;20022;-75
2021/04/02 11:07:34;;;;;;;1.17;0.85;;;7.00;99.90;;;;;;5006139;28;20037;-75
2021/04/02 11:10:00;;;;;;;0.25;0.25;;;7.00;99.90;;;;;;5009729;28;20023;-74
2021/04/02 11:12:29;;;;;;;18.48;0.52;;;7.00;99.90;;;;;;4998547;28;20038;-75
2021/04/02 11:14:55;;;;;;;6.60;0.63;;;7.00;99.90;;;;;;5009688;28;20025;-75
2021/04/02 11:17:22;;;;;;;1.58;1.33;;;7.20;99.90;;;;;;5004410;28;20033;-78
2021/04/02 11:19:48;;;;;;;;;;;7.10;99.90;;;;;;5014210;28;20038;-77
2021/04/02 11:22:14;;;;;;;1.30;1.20;;;7.10;99.90;;;;;;5008597;28;19917;-76
2021/04/02 11:24:40;;;;;;;0.75;0.75;;;7.00;99.90;;;;;;5004465;28;20275;-75
2021/04/02 11:27:07;;;;;;;0.37;0.37;;;7.10;99.90;;;;;;5011831;28;20033;-79
2021/04/02 11:29:33;;;;;;;17.98;1.17;;;7.10;99.90;;;;;;5002837;28;20042;-81
2021/04/02 11:32:00;;;;;;;0.63;0.63;;;7.20;99.90;;;;;;5005386;28;20089;-76
2021/04/02 11:34:27;;;;;;;0.20;0.20;;;7.20;99.90;;;;;;5004865;28;20033;-81
2021/04/02 11:36:53;;;;;;;1.23;0.22;;;7.20;99.90;;;;;;5005191;28;20026;-75
2021/04/02 11:39:19;;;;;;;2.80;0.95;;;7.20;99.90;;;;;;5009333;28;20366;-76
2021/04/02 11:41:44;;;;;;;0.13;0.13;;;7.10;99.90;;;;;;5011884;28;20015;-79
2021/04/02 11:44:10;;;;;;;1.03;0.70;;;7.20;99.90;;;;;;5005030;28;20032;-75
2021/04/02 11:46:36;;;;;;;0.07;0.07;;;7.20;99.90;;;;;;5012907;28;20372;-76
2021/04/02 11:49:03;;;;;;;6.00;0.30;;;7.20;99.90;;;;;;5024757;28;20034;-82
2021/04/02 11:51:30;;;;;;;0.68;0.57;;;7.10;99.90;;;;;;5011468;28;20068;-75
2021/04/02 11:53:55;;;;;;;0.35;0.35;;;7.10;99.90;;;;;;5012102;28;20026;-74
2021/04/02 11:56:21;;;;;;;0.43;0.37;;;7.10;99.90;;;;;;5011650;28;20034;-76
2021/04/02 11:58:47;;;;;;;0.73;0.67;;;7.20;99.90;;;;;;5013186;28;20022;-76
2021/04/02 12:01:12;;;;;;;0.20;0.20;;;7.10;99.90;;;;;;5012282;28;20084;-74
2021/04/02 12:03:38;;;;;;;3.78;1.23;;;7.00;99.90;;;;;;5011355;28;20030;-76
2021/04/02 12:06:04;;;;;;;0.10;0.10;;;7.00;99.90;;;;;;5008500;28;20022;-80
2021/04/02 12:08:29;;;;;;;0.20;0.20;;;7.00;99.90;;;;;;5009807;28;20040;-75
2021/04/02 12:10:55;;;;;;;2.00;1.50;;;7.00;99.90;;;;;;5004865;28;20065;-77
2021/04/02 12:13:21;;;;;;;4.70;0.83;;;7.00;99.90;;;;;;5010237;28;20029;-80
2021/04/02 12:15:47;;;;;;;0.70;0.70;;;7.00;99.90;;;;;;5013912;28;20072;-78
2021/04/02 12:18:13;;;;;;;0.00;0.00;;;7.00;99.90;;;;;;5012461;28;20607;-75
2021/04/02 12:20:38;;;;;;;0.10;0.10;;;6.90;99.90;;;;;;5009867;28;20474;-77
2021/04/02 12:23:04;;;;;;;0.17;0.17;;;6.90;99.90;;;;;;5009986;28;20079;-76
2021/04/02 12:25:30;;;;;;;0.90;0.90;;;6.90;99.90;;;;;;5011151;28;20026;-85
2021/04/02 12:27:56;;;;;;;0.15;0.15;;;6.90;99.90;;;;;;5013744;28;20026;-86
2021/04/02 12:30:22;;;;;;;0.10;0.10;;;6.80;99.90;;;;;;5011675;28;20061;-76
2021/04/02 12:32:48;;;;;;;1.43;0.50;;;6.80;99.90;;;;;;5026118;28;20171;-83
2021/04/02 12:35:13;;;;;;;0.40;0.40;;;6.80;99.90;;;;;;5012335;28;20030;-80
2021/04/02 12:37:41;;;;;;;2.90;0.30;;;6.90;99.90;;;;;;5014719;28;20026;-76
2021/04/02 12:40:13;;;;;;;0.15;0.15;;;6.90;99.90;;;;;;5014099;28;20029;-76
2021/04/02 12:42:39;;;;;;;0.82;0.80;;;6.90;99.90;;;;;;5014335;28;20337;-73
2021/04/02 12:45:07;;;;;;;4.00;1.38;;;6.90;99.90;;;;;;5015024;28;20022;-79
2021/04/02 12:47:33;;;;;;;0.10;0.10;;;6.90;99.90;;;;;;5031789;28;20329;-80
2021/04/02 12:49:59;;;;;;;0.20;0.20;;;6.90;99.90;;;;;;5017747;28;20034;-78
2021/04/02 12:52:25;;;;;;;6.35;3.30;;;6.80;99.90;;;;;;5017402;28;20046;-79
2021/04/02 12:54:52;;;;;;;;;;;6.80;99.90;;;;;;5016858;28;20061;-79
2021/04/02 12:57:17;;;;;;;0.90;0.90;;;6.90;99.90;;;;;;5016686;28;19914;-76
2021/04/02 12:59:43;;;;;;;0.30;0.10;;;6.90;99.90;;;;;;5013684;28;20053;-75
2021/04/02 13:02:10;;;;;;;0.13;0.13;;;7.00;99.90;;;;;;5016978;28;20025;-78
2021/04/02 13:04:37;;;;;;;0.47;0.47;;;7.10;99.90;;;;;;5012953;28;20057;-75
2021/04/02 13:07:03;;;;;;;0.05;0.05;;;7.10;99.90;;;;;;5015565;28;20029;-78